San Diego, CA (92103)

4:07 PM PST on January 26, 2015 (GMT -0800)
Hillcrest (West) | Change Station
CLOSE
Current Station
Personal Weather Station
Location: San Diego, CA
Elevation: 289 ft
Nearby Weather Stations

Elev 289 ft 32.75 °N, 117.16 °W | Updated 2 seconds ago

Rain
Rain
64.6 °F
Feels Like 64.6 °F
N
0.0
Wind Variable Wind from South
Gusts 0.0 mph

Today
High -- | Low -- °F
--% Chance of Precip.
Yesterday
High -- | Low -- °F
Precip. -- in
6:47 AM 5:15 PM
Waxing Crescent, 48% visible
Pressure 30.04 in
Visibility 10.0 miles
Clouds Scattered Clouds 6000 ft
Overcast 9000 ft
Dew Point 57 °F
Humidity 76%
Rainfall 0.04 in
Snow Depth Not available.
UV 0 out of 12
Pollen 6.10 out of 12
Air Quality Not available.
Flu Activity Not available.
METAR KSAN 262351Z 00000KT 10SM SCT060 OVC090 18/09 A3004 RMK AO2 RAE23 SLP172 P0000 60004 T01830089 10222 20172 50001

More Conditions Fewer Conditions

Pressure 30.04 in
Visibility 10.0 miles
Clouds Scattered Clouds 6000 ft
Overcast 9000 ft
Dew Point 57 °F
Humidity 76%
Rainfall 0.04 in
Snow Depth Not available.
UV 0 out of 12
Pollen 6.10 out of 12
Air Quality Not available.
Flu Activity Not available.
METAR KSAN 262351Z 00000KT 10SM SCT060 OVC090 18/09 A3004 RMK AO2 RAE23 SLP172 P0000 60004 T01830089 10222 20172 50001

More Conditions Fewer Conditions

10-Day Weather Forecast

Almanac

Astronomy

Jan. 26, 2015 Rise Set
Actual Time
Civil Twilight
Nautical Twilight
Astronomical Twilight
Moon
Length of Visible Light
Length of Day
Tomorrow will be .
, % of the Moon is Illuminated

Today's Extremes

State Highs State Lows

Community

WunderPhotos

Upload Photos

1,790,412 photos uploaded!

WunderBlogs® & News

Nearby

Air Quality

  Air Quality AQ Index Pollutant
Not available.

Snow Depth

Station Depth Elevation

Earthquake Activity

City Distance Mag. Time & Date
Minimum magnitude displayed is 2.5.

Coastal Water Temperatures

Place Temperature

Nearby Weather Stations